sensor_id;sensor_type;location;lat;lon;timestamp;pressure;altitude;pressure_sealevel;temperature;humidity
13553;BME280;6847;48.830;9.116;2023-04-22T00:01:56;97268.72;;;16.08;46.14
13553;BME280;6847;48.830;9.116;2023-04-22T00:04:24;97262.44;;;16.08;46.16
13553;BME280;6847;48.830;9.116;2023-04-22T00:06:50;97262.44;;;16.08;46.15
13553;BME280;6847;48.830;9.116;2023-04-22T00:09:17;97178.19;;;15.51;46.20
13553;BME280;6847;48.830;9.116;2023-04-22T00:11:43;97265.06;;;16.04;46.16
13553;BME280;6847;48.830;9.116;2023-04-22T00:14:10;97225.97;;;15.74;46.26
13553;BME280;6847;48.830;9.116;2023-04-22T00:16:37;97263.78;;;16.02;46.11
13553;BME280;6847;48.830;9.116;2023-04-22T00:19:05;97251.59;;;15.90;46.32
13553;BME280;6847;48.830;9.116;2023-04-22T00:21:35;97267.34;;;15.94;46.61
13553;BME280;6847;48.830;9.116;2023-04-22T00:24:03;97212.84;;;15.59;46.39
13553;BME280;6847;48.830;9.116;2023-04-22T00:26:33;97267.97;;;15.90;46.42
13553;BME280;6847;48.830;9.116;2023-04-22T00:28:59;96963.56;;;13.94;46.48
13553;BME280;6847;48.830;9.116;2023-04-22T00:31:26;97271.72;;;15.77;46.58
13553;BME280;6847;48.830;9.116;2023-04-22T00:33:53;97238.69;;;15.53;46.74
13553;BME280;6847;48.830;9.116;2023-04-22T00:36:21;97264.66;;;15.68;46.92
13553;BME280;6847;48.830;9.116;2023-04-22T00:38:50;97266.78;;;15.62;47.02
13553;BME280;6847;48.830;9.116;2023-04-22T00:41:18;97266.31;;;15.60;47.05
13553;BME280;6847;48.830;9.116;2023-04-22T00:43:45;97264.25;;;15.57;47.15
13553;BME280;6847;48.830;9.116;2023-04-22T00:46:11;97230.69;;;15.39;47.41
13553;BME280;6847;48.830;9.116;2023-04-22T00:48:40;97255.56;;;15.55;47.19
13553;BME280;6847;48.830;9.116;2023-04-22T00:51:06;97269.22;;;15.55;47.28
13553;BME280;6847;48.830;9.116;2023-04-22T00:53:33;97264.25;;;15.57;47.34
13553;BME280;6847;48.830;9.116;2023-04-22T00:56:02;97265.03;;;15.58;47.41
13553;BME280;6847;48.830;9.116;2023-04-22T00:58:30;97274.16;;;15.53;47.29
13553;BME280;6847;48.830;9.116;2023-04-22T01:00:57;97241.63;;;15.31;47.75
13553;BME280;6847;48.830;9.116;2023-04-22T01:03:26;97266.00;;;15.44;47.67
13553;BME280;6847;48.830;9.116;2023-04-22T01:05:55;97235.69;;;15.29;47.69
13553;BME280;6847;48.830;9.116;2023-04-22T01:08:23;97259.75;;;15.44;47.70
13553;BME280;6847;48.830;9.116;2023-04-22T01:10:56;97257.31;;;15.42;47.84
13553;BME280;6847;48.830;9.116;2023-04-22T01:13:26;97258.94;;;15.43;48.07
13553;BME280;6847;48.830;9.116;2023-04-22T01:15:52;97265.19;;;15.44;47.78
13553;BME280;6847;48.830;9.116;2023-04-22T01:18:19;97257.66;;;15.41;48.01
13553;BME280;6847;48.830;9.116;2023-04-22T01:20:46;97220.31;;;15.15;47.77
13553;BME280;6847;48.830;9.116;2023-04-22T01:23:17;97253.31;;;15.40;47.88
13553;BME280;6847;48.830;9.116;2023-04-22T01:25:45;97255.56;;;15.38;47.94
13553;BME280;6847;48.830;9.116;2023-04-22T01:28:13;97253.50;;;15.35;48.12
13553;BME280;6847;48.830;9.116;2023-04-22T01:30:40;97254.63;;;15.34;48.01
13553;BME280;6847;48.830;9.116;2023-04-22T01:33:08;97251.41;;;15.32;47.99
13553;BME280;6847;48.830;9.116;2023-04-22T01:35:35;97249.31;;;15.29;48.16
13553;BME280;6847;48.830;9.116;2023-04-22T01:38:02;97236.38;;;15.17;48.34
13553;BME280;6847;48.830;9.116;2023-04-22T01:40:34;97235.06;;;15.14;48.41
13553;BME280;6847;48.830;9.116;2023-04-22T01:43:02;97221.91;;;14.99;48.57
13553;BME280;6847;48.830;9.116;2023-04-22T01:45:29;97257.03;;;15.18;48.70
13553;BME280;6847;48.830;9.116;2023-04-22T01:47:56;97138.31;;;14.39;48.27
13553;BME280;6847;48.830;9.116;2023-04-22T01:50:23;97254.66;;;15.16;48.38
13553;BME280;6847;48.830;9.116;2023-04-22T01:52:51;97260.09;;;15.16;48.49
13553;BME280;6847;48.830;9.116;2023-04-22T01:55:18;97256.88;;;15.14;48.62
13553;BME280;6847;48.830;9.116;2023-04-22T01:57:50;97226.91;;;14.97;48.71
13553;BME280;6847;48.830;9.116;2023-04-22T02:00:17;97253.34;;;15.14;48.83
13553;BME280;6847;48.830;9.116;2023-04-22T02:02:43;97255.91;;;15.10;48.87
13553;BME280;6847;48.830;9.116;2023-04-22T02:05:10;97255.44;;;15.08;48.72
13553;BME280;6847;48.830;9.116;2023-04-22T02:07:37;97268.59;;;15.06;48.82
13553;BME280;6847;48.830;9.116;2023-04-22T02:10:04;97264.09;;;15.02;49.00
13553;BME280;6847;48.830;9.116;2023-04-22T02:12:33;97267.81;;;14.97;49.04
13553;BME280;6847;48.830;9.116;2023-04-22T02:15:02;97264.41;;;14.92;49.31
13553;BME280;6847;48.830;9.116;2023-04-22T02:17:31;97267.47;;;14.90;49.08
13553;BME280;6847;48.830;9.116;2023-04-22T02:20:00;97272.91;;;14.90;49.16
13553;BME280;6847;48.830;9.116;2023-04-22T02:22:26;97274.38;;;14.88;49.39
13553;BME280;6847;48.830;9.116;2023-04-22T02:24:53;97277.41;;;14.86;49.37
13553;BME280;6847;48.830;9.116;2023-04-22T02:27:20;97274.84;;;14.81;49.23
13553;BME280;6847;48.830;9.116;2023-04-22T02:29:47;97275.50;;;14.78;49.53
13553;BME280;6847;48.830;9.116;2023-04-22T02:32:15;97275.81;;;14.76;49.47
13553;BME280;6847;48.830;9.116;2023-04-22T02:34:42;97270.66;;;14.75;49.81
13553;BME280;6847;48.830;9.116;2023-04-22T02:37:09;97273.22;;;14.71;49.68
13553;BME280;6847;48.830;9.116;2023-04-22T02:39:36;97270.34;;;14.68;49.91
13553;BME280;6847;48.830;9.116;2023-04-22T02:42:03;97276.41;;;14.65;49.64
13553;BME280;6847;48.830;9.116;2023-04-22T02:44:32;97216.06;;;14.23;49.94
13553;BME280;6847;48.830;9.116;2023-04-22T02:46:59;97277.03;;;14.62;49.73
13553;BME280;6847;48.830;9.116;2023-04-22T02:49:29;97280.88;;;14.61;49.60
13553;BME280;6847;48.830;9.116;2023-04-22T02:51:56;97284.28;;;14.58;50.05
13553;BME280;6847;48.830;9.116;2023-04-22T02:54:23;97284.59;;;14.56;50.12
13553;BME280;6847;48.830;9.116;2023-04-22T02:56:50;97284.91;;;14.55;50.17
13553;BME280;6847;48.830;9.116;2023-04-22T02:59:19;97277.34;;;14.52;49.74
13553;BME280;6847;48.830;9.116;2023-04-22T03:01:46;97283.44;;;14.49;50.49
13553;BME280;6847;48.830;9.116;2023-04-22T03:04:13;97260.94;;;14.34;50.32
13553;BME280;6847;48.830;9.116;2023-04-22T03:06:43;97241.06;;;14.25;50.00
13553;BME280;6847;48.830;9.116;2023-04-22T03:09:10;97237.34;;;14.13;50.42
13553;BME280;6847;48.830;9.116;2023-04-22T03:11:37;97259.00;;;14.26;50.71
13553;BME280;6847;48.830;9.116;2023-04-22T03:14:03;97263.78;;;14.21;50.88
13553;BME280;6847;48.830;9.116;2023-04-22T03:16:30;97257.69;;;14.15;50.45
13553;BME280;6847;48.830;9.116;2023-04-22T03:18:58;97264.56;;;14.13;50.92
13553;BME280;6847;48.830;9.116;2023-04-22T03:21:26;97262.16;;;14.11;50.38
13553;BME280;6847;48.830;9.116;2023-04-22T03:23:55;97264.41;;;14.09;50.62
13553;BME280;6847;48.830;9.116;2023-04-22T03:26:22;97268.25;;;14.08;50.54
13553;BME280;6847;48.830;9.116;2023-04-22T03:28:50;97269.84;;;14.09;50.54
13553;BME280;6847;48.830;9.116;2023-04-22T03:31:18;97273.69;;;14.08;50.72
13553;BME280;6847;48.830;9.116;2023-04-22T03:33:44;97268.41;;;14.12;51.07
13553;BME280;6847;48.830;9.116;2023-04-22T03:36:11;97270.81;;;14.13;50.75
13553;BME280;6847;48.830;9.116;2023-04-22T03:38:38;97279.47;;;14.15;50.73
13553;BME280;6847;48.830;9.116;2023-04-22T03:41:06;97283.78;;;14.16;50.67
13553;BME280;6847;48.830;9.116;2023-04-22T03:43:33;97278.66;;;14.15;51.08
13553;BME280;6847;48.830;9.116;2023-04-22T03:46:00;97298.03;;;14.13;50.94
13553;BME280;6847;48.830;9.116;2023-04-22T03:48:27;97200.50;;;13.58;51.21
13553;BME280;6847;48.830;9.116;2023-04-22T03:51:01;97252.97;;;13.90;51.24
13553;BME280;6847;48.830;9.116;2023-04-22T03:53:28;97273.69;;;14.08;51.42
13553;BME280;6847;48.830;9.116;2023-04-22T03:55:55;97290.34;;;14.15;51.20
13553;BME280;6847;48.830;9.116;2023-04-22T03:58:25;97284.91;;;14.15;51.10
13553;BME280;6847;48.830;9.116;2023-04-22T04:00:52;97293.38;;;14.14;50.92
13553;BME280;6847;48.830;9.116;2023-04-22T04:03:20;97284.25;;;14.10;51.15
13553;BME280;6847;48.830;9.116;2023-04-22T04:05:49;97282.97;;;14.07;51.25
13553;BME280;6847;48.830;9.116;2023-04-22T04:08:16;97277.34;;;14.03;51.40
13553;BME280;6847;48.830;9.116;2023-04-22T04:10:47;97279.91;;;14.00;51.71
13553;BME280;6847;48.830;9.116;2023-04-22T04:13:13;97248.09;;;13.78;51.79
13553;BME280;6847;48.830;9.116;2023-04-22T04:15:44;97280.22;;;13.98;51.67
13553;BME280;6847;48.830;9.116;2023-04-22T04:18:11;97226.78;;;13.71;51.64
13553;BME280;6847;48.830;9.116;2023-04-22T04:20:39;97269.63;;;13.97;51.70
13553;BME280;6847;48.830;9.116;2023-04-22T04:23:07;97266.91;;;13.97;51.32
13553;BME280;6847;48.830;9.116;2023-04-22T04:25:34;97264.81;;;13.94;51.34
13553;BME280;6847;48.830;9.116;2023-04-22T04:30:35;97270.88;;;13.91;52.06
13553;BME280;6847;48.830;9.116;2023-04-22T04:33:05;97272.00;;;13.90;52.24
13553;BME280;6847;48.830;9.116;2023-04-22T04:35:32;97273.59;;;13.91;51.59
13553;BME280;6847;48.830;9.116;2023-04-22T04:38:09;97274.59;;;13.95;52.38
13553;BME280;6847;48.830;9.116;2023-04-22T04:40:41;97242.69;;;13.87;52.19
13553;BME280;6847;48.830;9.116;2023-04-22T04:43:10;97263.91;;;14.07;51.68
13553;BME280;6847;48.830;9.116;2023-04-22T04:45:39;97262.63;;;14.13;52.04
13553;BME280;6847;48.830;9.116;2023-04-22T04:48:12;97265.69;;;14.20;52.09
13553;BME280;6847;48.830;9.116;2023-04-22T04:50:40;97261.25;;;14.24;51.90
13553;BME280;6847;48.830;9.116;2023-04-22T04:53:08;97257.91;;;14.27;52.02
13553;BME280;6847;48.830;9.116;2023-04-22T04:55:35;97252.56;;;14.22;51.78
13553;BME280;6847;48.830;9.116;2023-04-22T04:58:03;97186.38;;;13.87;51.73
13553;BME280;6847;48.830;9.116;2023-04-22T05:00:33;97220.38;;;14.16;52.03
13553;BME280;6847;48.830;9.116;2023-04-22T05:02:59;97254.25;;;14.40;52.15
13553;BME280;6847;48.830;9.116;2023-04-22T05:05:28;97237.06;;;14.31;51.74
13553;BME280;6847;48.830;9.116;2023-04-22T05:07:56;97260.50;;;14.50;51.96
13553;BME280;6847;48.830;9.116;2023-04-22T05:10:23;97256.53;;;14.56;52.12
13553;BME280;6847;48.830;9.116;2023-04-22T05:12:50;97254.94;;;14.63;52.20
13553;BME280;6847;48.830;9.116;2023-04-22T05:15:17;97265.53;;;14.65;51.90
13553;BME280;6847;48.830;9.116;2023-04-22T05:17:43;97256.22;;;14.66;52.06
13553;BME280;6847;48.830;9.116;2023-04-22T05:20:10;97261.69;;;14.66;51.89
13553;BME280;6847;48.830;9.116;2023-04-22T05:22:39;97256.22;;;14.66;52.08
13553;BME280;6847;48.830;9.116;2023-04-22T05:25:08;97261.19;;;14.64;52.06
13553;BME280;6847;48.830;9.116;2023-04-22T05:27:35;97145.25;;;13.89;52.27
13553;BME280;6847;48.830;9.116;2023-04-22T05:30:05;97270.97;;;14.65;52.13
13553;BME280;6847;48.830;9.116;2023-04-22T05:32:32;97277.72;;;14.67;51.85
13553;BME280;6847;48.830;9.116;2023-04-22T05:34:59;97270.34;;;14.68;52.30
13553;BME280;6847;48.830;9.116;2023-04-22T05:37:28;97269.84;;;14.66;52.22
13553;BME280;6847;48.830;9.116;2023-04-22T05:39:56;97264.41;;;14.57;52.13
13553;BME280;6847;48.830;9.116;2023-04-22T05:42:23;97283.00;;;14.64;52.43
13553;BME280;6847;48.830;9.116;2023-04-22T05:44:50;97277.72;;;14.67;52.31
13553;BME280;6847;48.830;9.116;2023-04-22T05:47:16;97282.03;;;14.68;52.63
13553;BME280;6847;48.830;9.116;2023-04-22T05:49:46;97277.53;;;14.72;52.55
13553;BME280;6847;48.830;9.116;2023-04-22T05:52:14;97271.63;;;14.79;52.09
13553;BME280;6847;48.830;9.116;2023-04-22T05:54:42;97268.94;;;14.88;52.32
13553;BME280;6847;48.830;9.116;2023-04-22T05:57:13;97279.66;;;15.01;52.24
13553;BME280;6847;48.830;9.116;2023-04-22T05:59:40;97282.22;;;15.15;52.02
13553;BME280;6847;48.830;9.116;2023-04-22T06:02:07;97276.13;;;15.27;52.16
13553;BME280;6847;48.830;9.116;2023-04-22T06:04:33;97279.47;;;15.41;51.86
13553;BME280;6847;48.830;9.116;2023-04-22T06:06:59;97263.09;;;15.41;51.91
13553;BME280;6847;48.830;9.116;2023-04-22T06:09:26;97282.81;;;15.72;51.77
13553;BME280;6847;48.830;9.116;2023-04-22T06:11:52;97280.22;;;15.84;51.92
13553;BME280;6847;48.830;9.116;2023-04-22T06:14:20;97285.94;;;16.00;51.80
13553;BME280;6847;48.830;9.116;2023-04-22T06:16:48;97251.88;;;15.98;51.84
13553;BME280;6847;48.830;9.116;2023-04-22T06:19:16;97291.88;;;16.40;51.59
13553;BME280;6847;48.830;9.116;2023-04-22T06:21:43;97287.28;;;16.61;51.66
13553;BME280;6847;48.830;9.116;2023-04-22T06:24:09;97257.69;;;16.63;51.23
13553;BME280;6847;48.830;9.116;2023-04-22T06:26:36;97296.66;;;17.02;51.10
13553;BME280;6847;48.830;9.116;2023-04-22T06:29:03;97294.91;;;17.18;51.14
13553;BME280;6847;48.830;9.116;2023-04-22T06:31:31;97201.94;;;16.77;51.10
13553;BME280;6847;48.830;9.116;2023-04-22T06:33:59;97299.81;;;17.46;51.32
13553;BME280;6847;48.830;9.116;2023-04-22T06:36:25;97294.72;;;17.56;51.34
13553;BME280;6847;48.830;9.116;2023-04-22T06:38:52;97299.00;;;17.66;51.32
13553;BME280;6847;48.830;9.116;2023-04-22T06:41:21;97293.78;;;17.73;51.41
13553;BME280;6847;48.830;9.116;2023-04-22T06:43:48;97283.59;;;17.61;51.52
13553;BME280;6847;48.830;9.116;2023-04-22T06:46:15;97277.25;;;17.69;51.28
13553;BME280;6847;48.830;9.116;2023-04-22T06:48:44;97292.53;;;17.83;51.59
13553;BME280;6847;48.830;9.116;2023-04-22T06:51:11;97299.00;;;17.99;51.43
13553;BME280;6847;48.830;9.116;2023-04-22T06:53:37;97297.28;;;18.06;51.01
13553;BME280;6847;48.830;9.116;2023-04-22T06:56:07;97309.41;;;18.18;51.15
13553;BME280;6847;48.830;9.116;2023-04-22T06:58:35;97308.03;;;18.24;51.41
13553;BME280;6847;48.830;9.116;2023-04-22T07:01:01;97304.38;;;18.32;50.89
13553;BME280;6847;48.830;9.116;2023-04-22T07:03:28;97302.34;;;18.41;50.83
13553;BME280;6847;48.830;9.116;2023-04-22T07:05:57;97308.97;;;18.52;50.62
13553;BME280;6847;48.830;9.116;2023-04-22T07:08:24;97307.16;;;18.68;51.03
13553;BME280;6847;48.830;9.116;2023-04-22T07:10:52;97297.53;;;18.87;50.37
13553;BME280;6847;48.830;9.116;2023-04-22T07:13:19;97298.09;;;19.04;50.74
13553;BME280;6847;48.830;9.116;2023-04-22T07:15:46;97288.09;;;19.12;50.56
13553;BME280;6847;48.830;9.116;2023-04-22T07:18:14;97294.09;;;19.30;50.43
13553;BME280;6847;48.830;9.116;2023-04-22T07:20:41;97246.72;;;19.17;49.97
13553;BME280;6847;48.830;9.116;2023-04-22T07:23:10;97289.25;;;19.51;50.43
13553;BME280;6847;48.830;9.116;2023-04-22T07:25:37;97272.91;;;19.54;50.20
13553;BME280;6847;48.830;9.116;2023-04-22T07:28:04;97281.97;;;19.71;49.93
13553;BME280;6847;48.830;9.116;2023-04-22T07:30:31;97275.06;;;19.77;50.18
13553;BME280;6847;48.830;9.116;2023-04-22T07:32:58;97275.63;;;19.98;49.73
13553;BME280;6847;48.830;9.116;2023-04-22T07:35:26;97248.59;;;20.00;49.61
13553;BME280;6847;48.830;9.116;2023-04-22T07:37:53;97276.09;;;20.47;49.45
13553;BME280;6847;48.830;9.116;2023-04-22T07:40:21;97263.94;;;20.64;49.26
13553;BME280;6847;48.830;9.116;2023-04-22T07:42:50;97263.97;;;20.83;49.07
13553;BME280;6847;48.830;9.116;2023-04-22T07:45:16;97282.09;;;21.03;48.98
13553;BME280;6847;48.830;9.116;2023-04-22T07:47:54;97290.97;;;21.13;48.93
13553;BME280;6847;48.830;9.116;2023-04-22T07:50:22;97269.91;;;21.20;48.94
13553;BME280;6847;48.830;9.116;2023-04-22T07:52:54;97297.94;;;21.45;48.85
13553;BME280;6847;48.830;9.116;2023-04-22T07:55:33;97295.03;;;21.57;48.81
13553;BME280;6847;48.830;9.116;2023-04-22T07:58:00;97293.59;;;21.63;48.62
13553;BME280;6847;48.830;9.116;2023-04-22T08:00:30;97297.66;;;21.69;48.59
13553;BME280;6847;48.830;9.116;2023-04-22T08:02:57;97296.91;;;21.92;48.36
13553;BME280;6847;48.830;9.116;2023-04-22T08:05:24;97315.25;;;22.26;47.95
13553;BME280;6847;48.830;9.116;2023-04-22T08:07:53;97318.06;;;22.52;47.64
13553;BME280;6847;48.830;9.116;2023-04-22T08:10:20;97316.81;;;22.73;47.32
13553;BME280;6847;48.830;9.116;2023-04-22T08:12:48;97308.44;;;22.88;47.11
13553;BME280;6847;48.830;9.116;2023-04-22T08:15:14;97307.31;;;22.93;47.24
13553;BME280;6847;48.830;9.116;2023-04-22T08:17:41;97314.00;;;22.92;47.26
13553;BME280;6847;48.830;9.116;2023-04-22T08:20:08;97306.13;;;22.94;47.32
13553;BME280;6847;48.830;9.116;2023-04-22T08:22:35;97301.47;;;22.98;47.41
13553;BME280;6847;48.830;9.116;2023-04-22T08:25:03;97308.97;;;23.28;46.89
13553;BME280;6847;48.830;9.116;2023-04-22T08:27:31;97301.75;;;24.60;44.84
13553;BME280;6847;48.830;9.116;2023-04-22T08:29:59;97317.72;;;26.72;42.06
13553;BME280;6847;48.830;9.116;2023-04-22T08:32:25;97307.94;;;27.90;40.85
13553;BME280;6847;48.830;9.116;2023-04-22T08:34:52;97306.13;;;29.25;39.77
13553;BME280;6847;48.830;9.116;2023-04-22T08:37:20;97312.69;;;30.90;37.78
13553;BME280;6847;48.830;9.116;2023-04-22T08:39:46;97312.72;;;32.64;36.50
13553;BME280;6847;48.830;9.116;2023-04-22T08:42:14;97320.16;;;33.94;35.72
13553;BME280;6847;48.830;9.116;2023-04-22T08:44:40;97320.25;;;34.57;35.51
13553;BME280;6847;48.830;9.116;2023-04-22T08:47:09;97320.63;;;35.06;35.33
13553;BME280;6847;48.830;9.116;2023-04-22T08:49:36;97314.25;;;35.62;34.87
13553;BME280;6847;48.830;9.116;2023-04-22T08:52:03;97315.69;;;36.32;34.30
13553;BME280;6847;48.830;9.116;2023-04-22T08:54:30;97318.28;;;36.97;34.04
13553;BME280;6847;48.830;9.116;2023-04-22T08:56:59;97305.00;;;37.34;33.78
13553;BME280;6847;48.830;9.116;2023-04-22T08:59:26;97320.25;;;37.37;33.34
13553;BME280;6847;48.830;9.116;2023-04-22T09:01:54;97289.28;;;37.06;33.59
13553;BME280;6847;48.830;9.116;2023-04-22T09:04:23;97309.56;;;37.32;33.81
13553;BME280;6847;48.830;9.116;2023-04-22T09:06:53;97246.81;;;37.10;32.89
13553;BME280;6847;48.830;9.116;2023-04-22T09:09:20;97294.94;;;38.06;33.01
13553;BME280;6847;48.830;9.116;2023-04-22T09:11:48;97298.56;;;38.82;31.47
13553;BME280;6847;48.830;9.116;2023-04-22T09:14:15;97302.31;;;39.36;31.06
13553;BME280;6847;48.830;9.116;2023-04-22T09:16:46;97301.91;;;39.52;31.10
13553;BME280;6847;48.830;9.116;2023-04-22T09:19:13;97298.53;;;39.15;31.56
13553;BME280;6847;48.830;9.116;2023-04-22T09:21:41;97300.91;;;38.50;31.54
13553;BME280;6847;48.830;9.116;2023-04-22T09:24:09;97296.38;;;37.47;32.99
13553;BME280;6847;48.830;9.116;2023-04-22T09:26:40;97295.03;;;36.75;33.26
13553;BME280;6847;48.830;9.116;2023-04-22T09:29:12;97293.81;;;36.45;33.30
13553;BME280;6847;48.830;9.116;2023-04-22T09:31:39;97295.31;;;36.06;33.45
13553;BME280;6847;48.830;9.116;2023-04-22T09:34:06;97283.06;;;35.56;33.33
13553;BME280;6847;48.830;9.116;2023-04-22T09:36:33;97299.66;;;35.54;33.25
13553;BME280;6847;48.830;9.116;2023-04-22T09:39:04;97269.66;;;35.60;32.73
13553;BME280;6847;48.830;9.116;2023-04-22T09:41:33;97291.63;;;36.18;31.88
13553;BME280;6847;48.830;9.116;2023-04-22T09:44:02;97297.44;;;36.55;31.31
13553;BME280;6847;48.830;9.116;2023-04-22T09:46:31;97294.34;;;36.62;31.69
13553;BME280;6847;48.830;9.116;2023-04-22T09:49:10;97281.91;;;37.09;30.54
13553;BME280;6847;48.830;9.116;2023-04-22T09:51:39;97279.09;;;38.00;29.41
13553;BME280;6847;48.830;9.116;2023-04-22T09:54:13;97280.31;;;38.83;28.59
13553;BME280;6847;48.830;9.116;2023-04-22T09:56:41;97279.31;;;38.95;28.31
13553;BME280;6847;48.830;9.116;2023-04-22T09:59:09;97278.63;;;38.43;29.36
13553;BME280;6847;48.830;9.116;2023-04-22T10:01:36;97271.59;;;37.60;29.84
13553;BME280;6847;48.830;9.116;2023-04-22T10:04:05;97254.31;;;37.03;29.86
13553;BME280;6847;48.830;9.116;2023-04-22T10:06:32;97262.16;;;36.90;30.16
13553;BME280;6847;48.830;9.116;2023-04-22T10:09:02;97254.59;;;36.78;29.71
13553;BME280;6847;48.830;9.116;2023-04-22T10:11:33;97261.06;;;36.97;29.15
13553;BME280;6847;48.830;9.116;2023-04-22T10:14:02;97255.44;;;37.33;28.88
13553;BME280;6847;48.830;9.116;2023-04-22T10:16:31;97210.41;;;36.93;29.12
13553;BME280;6847;48.830;9.116;2023-04-22T10:19:01;97219.03;;;36.81;29.08
13553;BME280;6847;48.830;9.116;2023-04-22T10:21:29;97266.25;;;37.08;28.80
13553;BME280;6847;48.830;9.116;2023-04-22T10:23:57;97263.94;;;36.66;28.85
13553;BME280;6847;48.830;9.116;2023-04-22T10:26:39;97257.75;;;36.80;28.52
13553;BME280;6847;48.830;9.116;2023-04-22T10:29:12;97253.72;;;37.45;27.95
13553;BME280;6847;48.830;9.116;2023-04-22T10:31:41;97253.88;;;38.20;27.03
13553;BME280;6847;48.830;9.116;2023-04-22T10:34:10;97248.94;;;38.72;26.57
13553;BME280;6847;48.830;9.116;2023-04-22T10:36:58;97235.94;;;38.89;26.04
13553;BME280;6847;48.830;9.116;2023-04-22T10:39:28;97240.59;;;38.77;26.69
13553;BME280;6847;48.830;9.116;2023-04-22T10:42:06;97235.09;;;38.74;26.45
13553;BME280;6847;48.830;9.116;2023-04-22T10:44:46;97250.16;;;38.80;26.18
13553;BME280;6847;48.830;9.116;2023-04-22T10:47:24;97237.38;;;38.61;26.02
13553;BME280;6847;48.830;9.116;2023-04-22T10:49:51;97235.47;;;38.67;25.84
13553;BME280;6847;48.830;9.116;2023-04-22T10:52:35;97239.97;;;39.21;25.28
13553;BME280;6847;48.830;9.116;2023-04-22T10:55:02;97240.94;;;39.71;25.11
13553;BME280;6847;48.830;9.116;2023-04-22T10:57:36;97238.50;;;39.64;24.80
13553;BME280;6847;48.830;9.116;2023-04-22T11:00:37;97240.25;;;39.47;24.73
13553;BME280;6847;48.830;9.116;2023-04-22T11:03:13;97235.75;;;38.93;25.21
13553;BME280;6847;48.830;9.116;2023-04-22T11:05:41;97228.50;;;38.44;25.41
13553;BME280;6847;48.830;9.116;2023-04-22T11:08:13;97218.78;;;37.94;25.39
13553;BME280;6847;48.830;9.116;2023-04-22T11:10:42;97222.50;;;37.39;25.71
13553;BME280;6847;48.830;9.116;2023-04-22T11:13:11;97223.66;;;36.16;26.40
13553;BME280;6847;48.830;9.116;2023-04-22T11:15:40;97229.19;;;35.67;26.50
13553;BME280;6847;48.830;9.116;2023-04-22T11:18:17;97230.47;;;35.10;26.54
13553;BME280;6847;48.830;9.116;2023-04-22T11:20:44;97224.97;;;34.59;25.95
13553;BME280;6847;48.830;9.116;2023-04-22T11:23:16;97201.50;;;33.90;26.25
13553;BME280;6847;48.830;9.116;2023-04-22T11:25:45;97217.72;;;33.57;26.16
13553;BME280;6847;48.830;9.116;2023-04-22T11:28:19;97216.63;;;33.67;25.81
13553;BME280;6847;48.830;9.116;2023-04-22T11:30:47;97206.34;;;34.14;24.88
13553;BME280;6847;48.830;9.116;2023-04-22T11:33:14;97214.31;;;34.29;24.49
13553;BME280;6847;48.830;9.116;2023-04-22T11:35:44;97200.84;;;33.86;24.85
13553;BME280;6847;48.830;9.116;2023-04-22T11:38:11;97216.63;;;33.25;25.23
13553;BME280;6847;48.830;9.116;2023-04-22T11:40:43;97208.84;;;32.55;25.59
13553;BME280;6847;48.830;9.116;2023-04-22T11:43:11;97203.72;;;32.21;25.64
13553;BME280;6847;48.830;9.116;2023-04-22T11:45:39;97212.31;;;31.94;25.61
13553;BME280;6847;48.830;9.116;2023-04-22T11:48:07;97207.06;;;31.41;25.41
13553;BME280;6847;48.830;9.116;2023-04-22T11:50:36;97178.25;;;30.61;25.80
13553;BME280;6847;48.830;9.116;2023-04-22T11:53:04;97195.16;;;30.04;26.27
13553;BME280;6847;48.830;9.116;2023-04-22T11:55:32;97197.00;;;29.57;26.07
13553;BME280;6847;48.830;9.116;2023-04-22T11:58:00;97195.72;;;29.31;26.54
13553;BME280;6847;48.830;9.116;2023-04-22T12:00:29;97186.91;;;29.36;25.97
13553;BME280;6847;48.830;9.116;2023-04-22T12:02:59;97197.09;;;29.50;25.97
13553;BME280;6847;48.830;9.116;2023-04-22T12:05:34;97192.69;;;29.52;26.37
13553;BME280;6847;48.830;9.116;2023-04-22T12:08:03;97192.50;;;29.66;25.78
13553;BME280;6847;48.830;9.116;2023-04-22T12:10:30;97190.91;;;29.65;26.07
13553;BME280;6847;48.830;9.116;2023-04-22T12:12:56;97184.22;;;29.59;25.57
13553;BME280;6847;48.830;9.116;2023-04-22T12:15:23;97155.75;;;29.11;26.00
13553;BME280;6847;48.830;9.116;2023-04-22T12:17:49;97180.72;;;28.87;26.45
13553;BME280;6847;48.830;9.116;2023-04-22T12:20:18;97198.34;;;28.70;26.16
13553;BME280;6847;48.830;9.116;2023-04-22T12:22:45;97169.88;;;28.55;26.14
13553;BME280;6847;48.830;9.116;2023-04-22T12:25:17;97192.66;;;28.88;26.30
13553;BME280;6847;48.830;9.116;2023-04-22T12:27:46;97182.03;;;29.09;25.86
13553;BME280;6847;48.830;9.116;2023-04-22T12:30:13;97171.00;;;29.33;25.73
13553;BME280;6847;48.830;9.116;2023-04-22T12:32:41;97179.09;;;29.24;26.05
13553;BME280;6847;48.830;9.116;2023-04-22T12:35:11;97127.50;;;28.71;25.96
13553;BME280;6847;48.830;9.116;2023-04-22T12:37:40;97176.56;;;29.02;26.05
13553;BME280;6847;48.830;9.116;2023-04-22T12:40:12;97170.38;;;28.88;26.16
13553;BME280;6847;48.830;9.116;2023-04-22T12:42:39;97181.53;;;28.84;26.34
13553;BME280;6847;48.830;9.116;2023-04-22T12:45:06;97160.16;;;28.70;26.19
13553;BME280;6847;48.830;9.116;2023-04-22T12:47:33;97192.69;;;28.84;26.33
13553;BME280;6847;48.830;9.116;2023-04-22T12:50:00;97182.50;;;28.67;26.41
13553;BME280;6847;48.830;9.116;2023-04-22T12:52:31;97195.81;;;28.49;26.58
13553;BME280;6847;48.830;9.116;2023-04-22T12:54:59;97189.06;;;28.46;26.47
13553;BME280;6847;48.830;9.116;2023-04-22T12:57:29;97194.53;;;28.57;26.34
13553;BME280;6847;48.830;9.116;2023-04-22T12:59:59;97195.56;;;28.77;26.06
13553;BME280;6847;48.830;9.116;2023-04-22T13:02:26;97163.19;;;28.46;26.07
13553;BME280;6847;48.830;9.116;2023-04-22T13:05:07;97201.88;;;28.37;26.42
13553;BME280;6847;48.830;9.116;2023-04-22T13:07:34;97200.50;;;28.07;26.58
13553;BME280;6847;48.830;9.116;2023-04-22T13:10:03;97194.28;;;27.89;26.58
13553;BME280;6847;48.830;9.116;2023-04-22T13:12:30;97200.69;;;27.79;26.79
13553;BME280;6847;48.830;9.116;2023-04-22T13:14:58;97194.44;;;27.60;26.90
13553;BME280;6847;48.830;9.116;2023-04-22T13:17:26;97194.50;;;27.46;26.80
13553;BME280;6847;48.830;9.116;2023-04-22T13:19:53;97199.31;;;27.35;26.91